createdAt,value
2019-01-24T00:00:55.921Z,100272.23
2019-01-24T00:02:00.718Z,100275.98
2019-01-24T00:03:05.910Z,100277.33
2019-01-24T00:04:13.121Z,100276.58
2019-01-24T00:05:17.247Z,100280.06
2019-01-24T00:06:22.693Z,100280.82
2019-01-24T00:07:27.189Z,100279.40
2019-01-24T00:08:32.363Z,100280.07
2019-01-24T00:09:37.507Z,100282.64
2019-01-24T00:10:42.705Z,100282.80
2019-01-24T00:11:47.544Z,100283.47
2019-01-24T00:12:52.344Z,100288.97
2019-01-24T00:13:57.570Z,100289.84
2019-01-24T00:15:02.425Z,100290.27
2019-01-24T00:16:07.010Z,100292.13
2019-01-24T00:17:12.461Z,100286.39
2019-01-24T00:18:17.699Z,100291.06
2019-01-24T00:19:23.313Z,100293.74
2019-01-24T00:20:28.470Z,100293.91
2019-01-24T00:21:33.591Z,100294.27
2019-01-24T00:22:38.413Z,100297.59
2019-01-24T00:23:44.310Z,100292.72
2019-01-24T00:24:49.158Z,100294.61
2019-01-24T00:25:54.298Z,100292.36
2019-01-24T00:26:59.075Z,100300.11
2019-01-24T00:28:03.997Z,100303.98
2019-01-24T00:29:08.859Z,100301.30
2019-01-24T00:30:13.685Z,100302.56
2019-01-24T00:31:18.850Z,100308.34
2019-01-24T00:32:24.102Z,100310.80
2019-01-24T00:33:29.543Z,100306.84
2019-01-24T00:34:34.345Z,100310.64
2019-01-24T00:35:40.269Z,100310.98
2019-01-24T00:36:45.567Z,100312.14
2019-01-24T00:37:50.348Z,100314.00
2019-01-24T00:38:55.801Z,100313.11
2019-01-24T00:40:01.100Z,100315.13
2019-01-24T00:41:05.927Z,100311.91
2019-01-24T00:42:11.214Z,100310.77
2019-01-24T00:43:16.031Z,100320.52
2019-01-24T00:44:20.867Z,100312.89
2019-01-24T00:45:25.999Z,100317.74
2019-01-24T00:46:30.842Z,100327.78
2019-01-24T00:47:36.718Z,100324.86
2019-01-24T00:48:43.335Z,100327.36
2019-01-24T00:49:48.855Z,100328.94
2019-01-24T00:50:54.337Z,100331.08
2019-01-24T00:51:59.499Z,100329.97
2019-01-24T00:53:04.734Z,100329.92
2019-01-24T00:54:09.641Z,100330.87
2019-01-24T00:55:14.450Z,100328.70
2019-01-24T00:56:19.356Z,100328.58
2019-01-24T00:57:24.218Z,100325.70
2019-01-24T00:58:29.433Z,100328.42
2019-01-24T00:59:35.495Z,100327.91
2019-01-24T01:00:40.428Z,100329.48
2019-01-24T01:01:45.238Z,100327.16
2019-01-24T01:02:49.818Z,100331.00
2019-01-24T01:03:54.613Z,100331.45
2019-01-24T01:04:59.735Z,100331.73
2019-01-24T01:06:04.573Z,100335.53
2019-01-24T01:07:09.798Z,100337.91
2019-01-24T01:08:14.675Z,100334.59
2019-01-24T01:09:19.915Z,100340.65
2019-01-24T01:10:25.590Z,100339.02
2019-01-24T01:11:30.747Z,100348.69
2019-01-24T01:12:36.224Z,100343.66
2019-01-24T01:13:40.995Z,100346.13
2019-01-24T01:14:46.451Z,100346.33
2019-01-24T01:15:51.235Z,100350.27
2019-01-24T01:16:56.545Z,100348.81
2019-01-24T01:18:01.722Z,100347.55
2019-01-24T01:19:06.739Z,100351.19
2019-01-24T01:20:14.246Z,100354.94
2019-01-24T01:21:19.021Z,100349.77
2019-01-24T01:22:23.835Z,100359.39
2019-01-24T01:23:29.349Z,100354.17
2019-01-24T01:24:34.890Z,100354.56
2019-01-24T01:25:39.687Z,100357.46
2019-01-24T01:26:45.195Z,100359.76
2019-01-24T01:27:50.410Z,100355.59
2019-01-24T01:28:55.557Z,100356.98
2019-01-24T01:30:00.808Z,100356.38
2019-01-24T01:31:06.339Z,100363.47
2019-01-24T01:32:11.218Z,100363.99
2019-01-24T01:33:16.819Z,100362.31
2019-01-24T01:34:21.976Z,100364.81
2019-01-24T01:35:27.140Z,100366.23
2019-01-24T01:36:32.267Z,100367.45
2019-01-24T01:37:37.447Z,100361.17
2019-01-24T01:38:41.993Z,100366.29
2019-01-24T01:39:46.799Z,100373.48
2019-01-24T01:40:51.644Z,100367.38
2019-01-24T01:41:56.420Z,100369.92
2019-01-24T01:43:01.618Z,100371.27
2019-01-24T01:44:06.461Z,100372.61
2019-01-24T01:45:13.830Z,100372.30
2019-01-24T01:46:19.038Z,100376.84
2019-01-24T01:47:23.879Z,100385.20
2019-01-24T01:48:29.053Z,100378.06
2019-01-24T01:49:34.235Z,100376.45
2019-01-24T01:50:39.383Z,100378.28
2019-01-24T01:51:44.145Z,100382.01
2019-01-24T01:52:49.877Z,100379.95
2019-01-24T01:53:54.680Z,100387.62
2019-01-24T01:55:00.229Z,100382.97
2019-01-24T01:56:04.835Z,100384.77
2019-01-24T01:57:09.697Z,100390.91
2019-01-24T01:58:14.820Z,100388.89
2019-01-24T01:59:20.053Z,100385.70
2019-01-24T02:00:25.486Z,100389.83
2019-01-24T02:01:30.251Z,100394.70
2019-01-24T02:02:35.110Z,100392.80
2019-01-24T02:03:40.340Z,100401.20
2019-01-24T02:04:45.509Z,100394.35
2019-01-24T02:05:50.305Z,100396.73
2019-01-24T02:06:55.516Z,100391.30
2019-01-24T02:08:00.301Z,100394.35
2019-01-24T02:09:07.203Z,100396.46
2019-01-24T02:10:14.144Z,100387.39
2019-01-24T02:11:18.912Z,100397.19
2019-01-24T02:12:23.685Z,100397.72
2019-01-24T02:13:28.449Z,100403.30
2019-01-24T02:14:33.950Z,100401.55
2019-01-24T02:15:39.090Z,100401.36
2019-01-24T02:16:43.616Z,100401.08
2019-01-24T02:17:48.425Z,100401.41
2019-01-24T02:18:53.563Z,100395.39
2019-01-24T02:19:58.107Z,100396.97
2019-01-24T02:21:03.631Z,100393.66
2019-01-24T02:22:08.826Z,100396.19
2019-01-24T02:23:13.629Z,100390.86
2019-01-24T02:24:19.281Z,100396.02
2019-01-24T02:25:24.067Z,100390.05
2019-01-24T02:26:28.886Z,100397.94
2019-01-24T02:27:34.044Z,100396.19
2019-01-24T02:28:38.843Z,100397.64
2019-01-24T02:29:43.962Z,100403.30
2019-01-24T02:30:49.398Z,100406.56
2019-01-24T02:31:54.614Z,100405.42
2019-01-24T02:32:59.439Z,100407.74
2019-01-24T02:34:04.420Z,100409.23
2019-01-24T02:35:10.433Z,100409.05
2019-01-24T02:36:15.251Z,100406.86
2019-01-24T02:37:20.707Z,100409.91
2019-01-24T02:38:26.335Z,100405.12
2019-01-24T02:39:31.242Z,100408.75
2019-01-24T02:40:36.017Z,100410.41
2019-01-24T02:41:41.241Z,100408.99
2019-01-24T02:42:46.199Z,100414.10
2019-01-24T02:43:50.690Z,100418.17
2019-01-24T02:44:55.831Z,100411.41
2019-01-24T02:46:00.340Z,100413.03
2019-01-24T02:47:05.148Z,100420.48
2019-01-24T02:48:10.285Z,100419.25
2019-01-24T02:49:15.870Z,100412.33
2019-01-24T02:50:21.319Z,100423.39
2019-01-24T02:51:26.163Z,100420.00
2019-01-24T02:52:31.787Z,100422.44
2019-01-24T02:53:36.976Z,100424.80
2019-01-24T02:54:42.436Z,100419.04
2019-01-24T02:55:48.077Z,100423.71
2019-01-24T02:56:52.853Z,100426.02
2019-01-24T02:57:57.689Z,100421.97
2019-01-24T02:59:03.250Z,100419.74
2019-01-24T03:00:09.182Z,100427.72
2019-01-24T03:01:14.325Z,100429.72
2019-01-24T03:02:19.104Z,100432.64
2019-01-24T03:03:24.370Z,100429.23
2019-01-24T03:04:29.334Z,100436.05
2019-01-24T03:05:34.107Z,100433.33
2019-01-24T03:06:39.378Z,100435.98
2019-01-24T03:07:44.169Z,100427.97
2019-01-24T03:08:48.681Z,100430.33
2019-01-24T03:09:53.553Z,100432.08
2019-01-24T03:10:58.338Z,100430.34
2019-01-24T03:12:04.019Z,100431.11
2019-01-24T03:13:09.591Z,100431.41
2019-01-24T03:14:14.366Z,100433.30
2019-01-24T03:15:20.291Z,100434.21
2019-01-24T03:16:25.232Z,100432.64
2019-01-24T03:17:30.369Z,100430.50
2019-01-24T03:18:35.510Z,100426.36
2019-01-24T03:19:40.944Z,100420.38
2019-01-24T03:20:45.732Z,100425.27
2019-01-24T03:21:51.030Z,100428.84
2019-01-24T03:22:56.254Z,100423.61
2019-01-24T03:24:01.913Z,100421.96
2019-01-24T03:25:07.494Z,100423.48
2019-01-24T03:26:12.601Z,100419.34
2019-01-24T03:27:17.470Z,100417.02
2019-01-24T03:28:23.163Z,100422.73
2019-01-24T03:29:28.680Z,100419.42
2019-01-24T03:30:33.449Z,100424.36
2019-01-24T03:31:37.951Z,100421.73
2019-01-24T03:32:43.114Z,100428.98
2019-01-24T03:33:47.683Z,100420.39
2019-01-24T03:34:52.838Z,100423.84
2019-01-24T03:35:58.008Z,100422.91
2019-01-24T03:37:03.516Z,100420.70
2019-01-24T03:38:08.651Z,100422.66
2019-01-24T03:39:13.865Z,100426.52
2019-01-24T03:40:18.689Z,100426.05
2019-01-24T03:41:23.206Z,100430.98
2019-01-24T03:42:28.672Z,100432.42
2019-01-24T03:43:33.819Z,100427.06
2019-01-24T03:44:39.010Z,100428.46
2019-01-24T03:45:43.507Z,100429.11
2019-01-24T03:46:48.295Z,100430.59
2019-01-24T03:47:53.084Z,100436.87
2019-01-24T03:48:58.214Z,100432.36
2019-01-24T03:50:03.086Z,100441.93
2019-01-24T03:51:08.409Z,100437.88
2019-01-24T03:52:13.964Z,100442.14
2019-01-24T03:53:18.764Z,100435.74
2019-01-24T03:54:23.629Z,100441.19
2019-01-24T03:55:28.232Z,100436.70
2019-01-24T03:56:33.004Z,100438.44
2019-01-24T03:57:38.176Z,100438.27
2019-01-24T03:58:43.901Z,100441.53
2019-01-24T03:59:49.109Z,100436.78
2019-01-24T04:00:54.304Z,100435.52
2019-01-24T04:01:59.482Z,100437.34
2019-01-24T04:03:05.122Z,100438.13
2019-01-24T04:04:09.920Z,100437.40
2019-01-24T04:05:14.978Z,100433.86
2019-01-24T04:06:23.760Z,100441.10
2019-01-24T04:07:28.869Z,100439.14
2019-01-24T04:08:33.647Z,100435.20
2019-01-24T04:09:38.872Z,100434.65
2019-01-24T04:10:44.046Z,100435.69
2019-01-24T04:11:49.192Z,100436.22
2019-01-24T04:12:54.131Z,100437.25
2019-01-24T04:13:58.904Z,100438.84
2019-01-24T04:15:04.076Z,100439.48
2019-01-24T04:16:09.236Z,100442.88
2019-01-24T04:17:14.415Z,100440.97
2019-01-24T04:18:19.183Z,100445.62
2019-01-24T04:19:24.764Z,100447.11
2019-01-24T04:20:29.595Z,100445.55
2019-01-24T04:21:34.422Z,100445.29
2019-01-24T04:22:39.576Z,100446.89
2019-01-24T04:23:44.647Z,100449.41
2019-01-24T04:24:50.266Z,100453.43
2019-01-24T04:25:55.039Z,100453.68
2019-01-24T04:27:00.596Z,100455.95
2019-01-24T04:28:06.602Z,100459.75
2019-01-24T04:29:11.359Z,100458.58
2019-01-24T04:30:18.380Z,100462.06
2019-01-24T04:31:22.875Z,100459.45
2019-01-24T04:32:27.758Z,100464.89
2019-01-24T04:33:33.008Z,100465.77
2019-01-24T04:34:38.224Z,100461.41
2019-01-24T04:35:43.033Z,100468.13
2019-01-24T04:36:47.810Z,100471.44
2019-01-24T04:37:53.346Z,100469.95
2019-01-24T04:38:58.645Z,100473.03
2019-01-24T04:40:03.560Z,100471.86
2019-01-24T04:41:09.025Z,100480.59
2019-01-24T04:42:14.128Z,100476.05
2019-01-24T04:43:19.429Z,100471.30
2019-01-24T04:44:24.939Z,100475.78
2019-01-24T04:45:29.711Z,100477.92
2019-01-24T04:46:34.922Z,100478.65
2019-01-24T04:47:39.696Z,100481.27
2019-01-24T04:48:44.493Z,100480.53
2019-01-24T04:49:49.678Z,100474.70
2019-01-24T04:50:54.175Z,100481.11
2019-01-24T04:51:59.497Z,100488.69
2019-01-24T04:53:04.041Z,100482.73
2019-01-24T04:54:09.478Z,100485.66
2019-01-24T04:55:16.023Z,100487.56
2019-01-24T04:56:21.097Z,100491.34
2019-01-24T04:57:26.321Z,100485.91
2019-01-24T04:58:31.936Z,100490.00
2019-01-24T04:59:39.514Z,100490.03
2019-01-24T05:00:44.583Z,100494.45
2019-01-24T05:01:50.050Z,100485.67
2019-01-24T05:02:54.902Z,100486.95
2019-01-24T05:03:59.706Z,100488.67
2019-01-24T05:05:05.324Z,100489.70
2019-01-24T05:06:10.601Z,100501.25
2019-01-24T05:07:15.064Z,100494.67
2019-01-24T05:08:20.033Z,100500.38
2019-01-24T05:09:25.139Z,100498.63
2019-01-24T05:10:29.903Z,100499.56
2019-01-24T05:11:34.703Z,100504.47
2019-01-24T05:12:39.590Z,100508.26
2019-01-24T05:13:45.104Z,100507.22
2019-01-24T05:14:49.913Z,100509.14
2019-01-24T05:15:55.314Z,100508.27
2019-01-24T05:17:00.604Z,100503.92
2019-01-24T05:18:05.826Z,100510.63
2019-01-24T05:19:10.619Z,100513.33
2019-01-24T05:20:15.384Z,100510.86
2019-01-24T05:21:20.201Z,100512.69
2019-01-24T05:22:25.582Z,100510.80
2019-01-24T05:23:31.510Z,100508.11
2019-01-24T05:24:36.404Z,100514.80
2019-01-24T05:25:41.296Z,100515.53
2019-01-24T05:26:46.298Z,100510.31
2019-01-24T05:27:51.730Z,100509.84
2019-01-24T05:28:56.521Z,100512.67
2019-01-24T05:30:01.393Z,100508.39
2019-01-24T05:31:06.223Z,100516.95
2019-01-24T05:32:11.339Z,100521.61
2019-01-24T05:33:16.128Z,100520.75
2019-01-24T05:34:21.295Z,100520.27
2019-01-24T05:35:26.645Z,100521.00
2019-01-24T05:36:31.846Z,100518.70
2019-01-24T05:37:37.376Z,100522.10
2019-01-24T05:38:42.207Z,100522.07
2019-01-24T05:39:47.351Z,100526.27
2019-01-24T05:40:52.200Z,100529.19
2019-01-24T05:41:57.679Z,100524.20
2019-01-24T05:43:02.177Z,100526.68
2019-01-24T05:44:07.025Z,100523.75
2019-01-24T05:45:12.040Z,100524.69
2019-01-24T05:46:17.473Z,100525.88
2019-01-24T05:47:22.499Z,100525.33
2019-01-24T05:48:27.276Z,100523.80
2019-01-24T05:49:32.099Z,100519.55
2019-01-24T05:50:37.266Z,100521.84
2019-01-24T05:51:42.416Z,100523.25
2019-01-24T05:52:47.478Z,100530.05
2019-01-24T05:53:53.396Z,100526.44
2019-01-24T05:54:58.872Z,100526.11
2019-01-24T05:56:03.645Z,100517.73
2019-01-24T05:57:08.987Z,100521.27
2019-01-24T05:58:13.745Z,100519.48
2019-01-24T05:59:18.519Z,100521.52
2019-01-24T06:00:37.119Z,100516.91
2019-01-24T06:01:42.352Z,100518.17
2019-01-24T06:02:47.142Z,100517.23
2019-01-24T06:03:53.061Z,100517.66
2019-01-24T06:04:57.888Z,100517.64
2019-01-24T06:06:02.689Z,100517.41
2019-01-24T06:07:07.841Z,100515.68
2019-01-24T06:08:13.607Z,100521.55
2019-01-24T06:09:19.104Z,100524.92
2019-01-24T06:10:23.882Z,100526.58
2019-01-24T06:11:29.027Z,100521.78
2019-01-24T06:12:34.157Z,100524.52
2019-01-24T06:13:39.656Z,100524.05
2019-01-24T06:14:44.421Z,100524.05
2019-01-24T06:15:49.289Z,100526.73
2019-01-24T06:16:53.818Z,100526.99
2019-01-24T06:17:59.098Z,100528.39
2019-01-24T06:19:03.899Z,100528.78
2019-01-24T06:20:09.324Z,100528.39
2019-01-24T06:21:14.501Z,100532.12
2019-01-24T06:22:19.651Z,100533.39
2019-01-24T06:23:24.723Z,100536.94
2019-01-24T06:24:29.524Z,100535.17
2019-01-24T06:25:34.557Z,100542.42
2019-01-24T06:26:40.007Z,100538.23
2019-01-24T06:27:44.839Z,100534.14
2019-01-24T06:28:50.161Z,100535.73
2019-01-24T06:29:55.331Z,100534.16
2019-01-24T06:31:00.497Z,100532.34
2019-01-24T06:32:05.270Z,100534.48
2019-01-24T06:33:10.143Z,100542.00
2019-01-24T06:34:15.217Z,100542.22
2019-01-24T06:35:20.462Z,100543.02
2019-01-24T06:36:25.234Z,100549.34
2019-01-24T06:37:30.309Z,100550.05
2019-01-24T06:38:35.459Z,100550.45
2019-01-24T06:39:40.562Z,100547.03
2019-01-24T06:40:45.649Z,100551.70
2019-01-24T06:41:50.432Z,100554.63
2019-01-24T06:42:55.207Z,100555.57
2019-01-24T06:44:00.308Z,100560.37
2019-01-24T06:45:05.754Z,100554.72
2019-01-24T06:46:11.354Z,100559.36
2019-01-24T06:47:16.199Z,100563.77
2019-01-24T06:48:21.318Z,100565.27
2019-01-24T06:49:26.105Z,100569.70
2019-01-24T06:50:31.373Z,100562.41
2019-01-24T06:51:36.462Z,100566.57
2019-01-24T06:52:41.620Z,100569.25
2019-01-24T06:53:46.923Z,100566.07
2019-01-24T06:54:51.513Z,100565.52
2019-01-24T06:55:57.622Z,100569.97
2019-01-24T06:57:03.428Z,100573.02
2019-01-24T06:58:08.636Z,100579.10
2019-01-24T06:59:13.995Z,100574.45
2019-01-24T07:00:18.799Z,100581.22
2019-01-24T07:01:23.889Z,100588.31
2019-01-24T07:02:29.157Z,100584.96
2019-01-24T07:03:34.713Z,100577.86
2019-01-24T07:04:39.540Z,100580.94
2019-01-24T07:05:44.671Z,100584.09
2019-01-24T07:06:49.767Z,100581.02
2019-01-24T07:07:54.278Z,100579.69
2019-01-24T07:09:00.270Z,100584.56
2019-01-24T07:10:05.824Z,100591.65
2019-01-24T07:11:10.804Z,100591.06
2019-01-24T07:12:15.298Z,100586.78
2019-01-24T07:13:21.178Z,100591.67
2019-01-24T07:14:26.769Z,100594.92
2019-01-24T07:15:36.314Z,100599.50
2019-01-24T07:16:41.144Z,100596.91
2019-01-24T07:17:46.414Z,100610.74
2019-01-24T07:18:51.180Z,100606.21
2019-01-24T07:19:56.001Z,100610.63
2019-01-24T07:21:01.166Z,100613.90
2019-01-24T07:22:05.949Z,100617.73
2019-01-24T07:23:10.740Z,100612.67
2019-01-24T07:24:16.174Z,100617.61
2019-01-24T07:25:23.580Z,100617.91
2019-01-24T07:26:28.772Z,100617.67
2019-01-24T07:27:33.981Z,100618.88
2019-01-24T07:28:39.070Z,100622.12
2019-01-24T07:29:44.185Z,100621.46
2019-01-24T07:30:49.442Z,100630.88
2019-01-24T07:31:54.660Z,100631.16
2019-01-24T07:32:59.774Z,100633.14
2019-01-24T07:34:04.893Z,100635.28
2019-01-24T07:35:12.116Z,100635.19
2019-01-24T07:36:17.707Z,100641.33
2019-01-24T07:37:23.215Z,100639.61
2019-01-24T07:38:28.517Z,100643.19
2019-01-24T07:39:33.304Z,100646.14
2019-01-24T07:40:39.100Z,100641.14
2019-01-24T07:41:44.673Z,100649.42
2019-01-24T07:42:49.343Z,100646.08
2019-01-24T07:43:54.459Z,100653.48
2019-01-24T07:44:59.991Z,100646.94
2019-01-24T07:46:05.094Z,100654.09
2019-01-24T07:47:09.676Z,100657.91
2019-01-24T07:48:15.118Z,100663.53
2019-01-24T07:49:20.502Z,100658.59
2019-01-24T07:50:26.729Z,100662.30
2019-01-24T07:51:31.886Z,100658.06
2019-01-24T07:52:36.526Z,100663.75
2019-01-24T07:53:42.316Z,100662.03
2019-01-24T07:54:47.533Z,100658.47
2019-01-24T07:55:53.338Z,100668.92
2019-01-24T07:56:58.418Z,100657.12
2019-01-24T07:58:03.600Z,100663.77
2019-01-24T07:59:08.480Z,100660.58
2019-01-24T08:00:19.777Z,100667.38
2019-01-24T08:01:25.176Z,100670.00
2019-01-24T08:02:30.395Z,100669.97
2019-01-24T08:03:35.610Z,100676.78
2019-01-24T08:04:40.876Z,100683.25
2019-01-24T08:05:46.632Z,100675.54
2019-01-24T08:06:51.560Z,100681.16
2019-01-24T08:07:56.411Z,100680.69
2019-01-24T08:09:01.339Z,100691.31
2019-01-24T08:10:07.126Z,100681.95
2019-01-24T08:11:11.944Z,100682.73
2019-01-24T08:12:17.385Z,100689.62
2019-01-24T08:13:22.967Z,100688.75
2019-01-24T08:14:28.520Z,100693.81
2019-01-24T08:15:34.242Z,100691.07
2019-01-24T08:16:39.036Z,100693.59
2019-01-24T08:17:44.533Z,100690.39
2019-01-24T08:18:52.196Z,100691.66
2019-01-24T08:19:57.934Z,100683.27
2019-01-24T08:21:03.212Z,100685.55
2019-01-24T08:22:10.166Z,100690.99
2019-01-24T08:23:15.215Z,100685.70
2019-01-24T08:24:20.596Z,100695.27
2019-01-24T08:25:26.428Z,100692.48
2019-01-24T08:26:32.230Z,100695.98
2019-01-24T08:27:36.861Z,100690.44
2019-01-24T08:28:43.243Z,100697.24
2019-01-24T08:29:49.308Z,100698.69
2019-01-24T08:30:54.103Z,100698.05
2019-01-24T08:31:59.173Z,100708.34
2019-01-24T08:33:03.962Z,100708.56
2019-01-24T08:34:08.750Z,100706.12
2019-01-24T08:35:13.914Z,100707.91
2019-01-24T08:36:18.754Z,100709.91
2019-01-24T08:37:25.080Z,100717.29
2019-01-24T08:38:29.706Z,100716.09
2019-01-24T08:39:34.893Z,100713.89
2019-01-24T08:40:39.894Z,100713.73
2019-01-24T08:41:44.993Z,100713.53
2019-01-24T08:42:50.417Z,100716.93
2019-01-24T08:43:56.225Z,100711.69
2019-01-24T08:45:03.513Z,100715.63
2019-01-24T08:46:09.345Z,100711.87
2019-01-24T08:47:17.451Z,100713.02
2019-01-24T08:48:23.918Z,100720.84
2019-01-24T08:49:29.200Z,100719.48
2019-01-24T08:50:34.909Z,100718.08
2019-01-24T08:51:42.702Z,100717.14
2019-01-24T08:52:47.324Z,100720.60
2019-01-24T08:53:52.825Z,100711.15
2019-01-24T08:54:58.541Z,100718.89
2019-01-24T08:56:03.435Z,100711.55
2019-01-24T08:57:08.295Z,100718.47
2019-01-24T08:58:13.864Z,100714.25
2019-01-24T08:59:18.885Z,100715.22
2019-01-24T09:00:23.676Z,100711.66
2019-01-24T09:01:29.259Z,100716.09
2019-01-24T09:02:34.984Z,100717.59
2019-01-24T09:03:40.393Z,100713.56
2019-01-24T09:04:46.130Z,100712.14
2019-01-24T09:05:51.947Z,100712.95
2019-01-24T09:06:57.380Z,100716.02
2019-01-24T09:08:02.210Z,100719.58
2019-01-24T09:09:09.723Z,100714.61
2019-01-24T09:10:18.399Z,100723.44
2019-01-24T09:11:23.375Z,100714.83
2019-01-24T09:12:30.543Z,100714.34
2019-01-24T09:13:34.931Z,100717.75
2019-01-24T09:14:41.274Z,100711.48
2019-01-24T09:15:46.963Z,100711.48
2019-01-24T09:16:52.730Z,100713.73
2019-01-24T09:17:57.952Z,100708.77
2019-01-24T09:19:03.596Z,100718.47
2019-01-24T09:20:10.772Z,100718.44
2019-01-24T09:21:15.621Z,100714.34
2019-01-24T09:22:20.485Z,100710.70
2019-01-24T09:23:25.635Z,100709.38
2019-01-24T09:24:31.352Z,100712.56
2019-01-24T09:25:36.490Z,100711.97
2019-01-24T09:26:42.193Z,100714.91
2019-01-24T09:27:47.680Z,100718.02
2019-01-24T09:28:52.529Z,100713.41
2019-01-24T09:30:00.032Z,100715.06
2019-01-24T09:31:05.233Z,100714.44
2019-01-24T09:32:10.012Z,100711.48
2019-01-24T09:33:15.362Z,100711.72
2019-01-24T09:34:20.229Z,100711.23
2019-01-24T09:35:25.060Z,100712.45
2019-01-24T09:36:29.946Z,100717.14
2019-01-24T09:37:34.750Z,100716.02
2019-01-24T09:38:39.958Z,100721.30
2019-01-24T09:39:44.960Z,100715.63
2019-01-24T09:40:49.516Z,100711.30
2019-01-24T09:41:54.411Z,100714.22
2019-01-24T09:42:59.659Z,100717.71
2019-01-24T09:44:04.204Z,100708.70
2019-01-24T09:45:12.116Z,100713.70
2019-01-24T09:46:17.451Z,100718.34
2019-01-24T09:47:22.754Z,100723.77
2019-01-24T09:48:28.227Z,100716.96
2019-01-24T09:49:33.809Z,100723.19
2019-01-24T09:50:39.554Z,100723.73
2019-01-24T09:51:44.601Z,100718.98
2019-01-24T09:52:49.228Z,100722.77
2019-01-24T09:53:55.073Z,100724.54
2019-01-24T09:55:00.103Z,100726.59
2019-01-24T09:56:05.040Z,100723.21
2019-01-24T09:57:10.237Z,100727.23
2019-01-24T09:58:16.198Z,100726.84
2019-01-24T09:59:21.498Z,100722.31
2019-01-24T10:00:29.285Z,100733.72
2019-01-24T10:01:33.801Z,100736.67
2019-01-24T10:02:39.091Z,100739.04
2019-01-24T10:03:44.288Z,100737.11
2019-01-24T10:04:50.314Z,100738.05
2019-01-24T10:05:55.282Z,100742.27
2019-01-24T10:07:00.178Z,100743.36
2019-01-24T10:08:05.455Z,100747.06
2019-01-24T10:09:10.643Z,100740.98
2019-01-24T10:10:18.128Z,100747.06
2019-01-24T10:11:23.606Z,100756.41
2019-01-24T10:12:28.447Z,100756.82
2019-01-24T10:13:33.286Z,100752.75
2019-01-24T10:14:38.143Z,100760.17
2019-01-24T10:15:43.447Z,100755.05
2019-01-24T10:16:48.640Z,100756.82
2019-01-24T10:17:53.515Z,100754.64
2019-01-24T10:18:58.663Z,100762.42
2019-01-24T10:20:03.853Z,100760.64
2019-01-24T10:21:09.295Z,100759.17
2019-01-24T10:22:14.840Z,100758.17
2019-01-24T10:23:21.025Z,100757.14
2019-01-24T10:24:26.448Z,100758.02
2019-01-24T10:25:40.964Z,100759.72
2019-01-24T10:26:47.239Z,100759.86
2019-01-24T10:27:52.209Z,100757.09
2019-01-24T10:28:57.684Z,100752.19
2019-01-24T10:30:02.911Z,100756.70
2019-01-24T10:31:07.955Z,100756.16
2019-01-24T10:32:14.246Z,100761.46
2019-01-24T10:33:19.354Z,100762.42
2019-01-24T10:34:24.279Z,100762.90
2019-01-24T10:35:29.764Z,100763.62
2019-01-24T10:36:35.167Z,100762.98
2019-01-24T10:37:39.699Z,100761.52
2019-01-24T10:38:44.796Z,100762.55
2019-01-24T10:39:50.128Z,100766.07
2019-01-24T10:40:55.176Z,100766.80
2019-01-24T10:41:59.729Z,100762.25
2019-01-24T10:43:04.561Z,100764.69
2019-01-24T10:44:10.854Z,100764.41
2019-01-24T10:45:17.117Z,100764.28
2019-01-24T10:46:23.039Z,100763.51
2019-01-24T10:47:28.261Z,100760.92
2019-01-24T10:48:33.711Z,100762.75
2019-01-24T10:49:39.342Z,100757.45
2019-01-24T10:50:44.380Z,100765.94
2019-01-24T10:51:50.228Z,100763.81
2019-01-24T10:52:55.038Z,100765.39
2019-01-24T10:54:00.382Z,100757.95
2019-01-24T10:55:05.575Z,100757.56
2019-01-24T10:56:13.186Z,100760.73
2019-01-24T10:57:17.969Z,100766.91
2019-01-24T10:58:23.497Z,100764.77
2019-01-24T10:59:28.281Z,100767.61
2019-01-24T11:00:37.881Z,100769.34
2019-01-24T11:01:42.821Z,100769.02
2019-01-24T11:02:47.981Z,100768.48
2019-01-24T11:03:53.194Z,100767.15
2019-01-24T11:04:58.174Z,100765.81
2019-01-24T11:06:03.304Z,100768.58
2019-01-24T11:07:08.124Z,100765.56
2019-01-24T11:08:13.326Z,100768.00
2019-01-24T11:09:18.621Z,100763.98
2019-01-24T11:10:23.161Z,100764.20
2019-01-24T11:11:28.371Z,100765.73
2019-01-24T11:12:33.862Z,100773.08
2019-01-24T11:13:38.740Z,100762.95
2019-01-24T11:14:43.584Z,100766.13
2019-01-24T11:15:48.752Z,100758.85
2019-01-24T11:16:53.761Z,100757.24
2019-01-24T11:17:59.184Z,100759.37
2019-01-24T11:19:03.709Z,100752.58
2019-01-24T11:20:10.122Z,100759.55
2019-01-24T11:21:15.009Z,100761.60
2019-01-24T11:22:20.026Z,100765.00
2019-01-24T11:23:25.259Z,100760.17
2019-01-24T11:24:29.805Z,100765.23
2019-01-24T11:25:34.614Z,100764.23
2019-01-24T11:26:39.457Z,100763.84
2019-01-24T11:27:44.644Z,100761.30
2019-01-24T11:28:49.476Z,100764.23
2019-01-24T11:29:54.302Z,100762.87
2019-01-24T11:30:59.137Z,100766.84
2019-01-24T11:32:04.043Z,100764.38
2019-01-24T11:33:08.958Z,100773.16
2019-01-24T11:34:13.862Z,100769.34
2019-01-24T11:35:19.301Z,100771.12
2019-01-24T11:36:24.277Z,100769.44
2019-01-24T11:37:28.887Z,100767.61
2019-01-24T11:38:34.557Z,100766.13
2019-01-24T11:39:39.483Z,100775.69
2019-01-24T11:40:44.394Z,100775.22
2019-01-24T11:41:50.006Z,100770.31
2019-01-24T11:42:54.887Z,100781.88
2019-01-24T11:44:00.330Z,100776.34
2019-01-24T11:45:07.417Z,100772.06
2019-01-24T11:46:12.233Z,100775.86
2019-01-24T11:47:17.860Z,100775.00
2019-01-24T11:48:23.027Z,100778.79
2019-01-24T11:49:27.915Z,100780.53
2019-01-24T11:50:33.439Z,100775.95
2019-01-24T11:51:38.651Z,100776.97
2019-01-24T11:52:45.132Z,100780.91
2019-01-24T11:53:53.232Z,100788.20
2019-01-24T11:54:56.934Z,100782.34
2019-01-24T11:56:01.755Z,100779.94
2019-01-24T11:57:06.591Z,100781.64
2019-01-24T11:58:11.424Z,100773.16
2019-01-24T11:59:16.581Z,100782.65
2019-01-24T12:00:51.101Z,100777.44
2019-01-24T12:01:55.599Z,100775.86
2019-01-24T12:03:00.405Z,100777.05
2019-01-24T12:04:05.250Z,100773.16
2019-01-24T12:05:10.919Z,100773.56
2019-01-24T12:06:16.149Z,100771.95
2019-01-24T12:07:21.322Z,100776.36
2019-01-24T12:08:26.433Z,100778.20
2019-01-24T12:09:31.251Z,100777.80
2019-01-24T12:10:36.422Z,100777.80
2019-01-24T12:11:41.554Z,100770.76
2019-01-24T12:12:46.496Z,100767.36
2019-01-24T12:13:51.275Z,100768.71
2019-01-24T12:14:56.124Z,100772.42
2019-01-24T12:16:01.954Z,100767.27
2019-01-24T12:17:06.821Z,100770.80
2019-01-24T12:18:11.963Z,100773.42
2019-01-24T12:19:16.763Z,100769.31
2019-01-24T12:20:22.781Z,100765.80
2019-01-24T12:21:27.586Z,100767.38
2019-01-24T12:22:32.802Z,100767.36
2019-01-24T12:23:37.903Z,100768.84
2019-01-24T12:24:42.720Z,100770.48
2019-01-24T12:25:48.339Z,100773.10